sensor_id;sensor_type;location;lat;lon;timestamp;P1;durP1;ratioP1;P2;durP2;ratioP2
48588;SDS011;34369;51.174;6.738;2023-07-30T00:00:30;28.67;;;26.58;;
48588;SDS011;34369;51.174;6.738;2023-07-30T00:03:02;28.52;;;26.60;;
48588;SDS011;34369;51.174;6.738;2023-07-30T00:05:34;28.15;;;26.25;;
48588;SDS011;34369;51.174;6.738;2023-07-30T00:08:07;27.85;;;25.95;;
48588;SDS011;34369;51.174;6.738;2023-07-30T00:10:39;29.02;;;27.10;;
48588;SDS011;34369;51.174;6.738;2023-07-30T00:13:13;28.33;;;26.23;;
48588;SDS011;34369;51.174;6.738;2023-07-30T00:15:46;29.08;;;26.85;;
48588;SDS011;34369;51.174;6.738;2023-07-30T00:18:19;28.35;;;26.35;;
48588;SDS011;34369;51.174;6.738;2023-07-30T00:20:51;28.27;;;26.17;;
48588;SDS011;34369;51.174;6.738;2023-07-30T00:23:23;27.42;;;25.50;;
48588;SDS011;34369;51.174;6.738;2023-07-30T00:25:55;27.40;;;25.60;;
48588;SDS011;34369;51.174;6.738;2023-07-30T00:28:29;28.33;;;26.10;;
48588;SDS011;34369;51.174;6.738;2023-07-30T00:31:01;27.65;;;25.65;;
48588;SDS011;34369;51.174;6.738;2023-07-30T00:33:34;27.77;;;25.88;;
48588;SDS011;34369;51.174;6.738;2023-07-30T00:36:07;28.25;;;26.13;;
48588;SDS011;34369;51.174;6.738;2023-07-30T00:38:39;27.77;;;25.88;;
48588;SDS011;34369;51.174;6.738;2023-07-30T00:41:11;28.90;;;26.90;;
48588;SDS011;34369;51.174;6.738;2023-07-30T00:43:46;28.08;;;26.17;;
48588;SDS011;34369;51.174;6.738;2023-07-30T00:48:52;27.27;;;25.48;;
48588;SDS011;34369;51.174;6.738;2023-07-30T00:51:24;27.67;;;25.85;;
48588;SDS011;34369;51.174;6.738;2023-07-30T00:53:59;27.88;;;25.98;;
48588;SDS011;34369;51.174;6.738;2023-07-30T00:56:32;29.45;;;27.10;;
48588;SDS011;34369;51.174;6.738;2023-07-30T00:59:06;28.65;;;26.65;;
48588;SDS011;34369;51.174;6.738;2023-07-30T01:01:38;29.02;;;26.70;;
48588;SDS011;34369;51.174;6.738;2023-07-30T01:04:14;30.50;;;27.55;;
48588;SDS011;34369;51.174;6.738;2023-07-30T01:06:47;28.08;;;26.25;;
48588;SDS011;34369;51.174;6.738;2023-07-30T01:09:19;29.00;;;27.00;;
48588;SDS011;34369;51.174;6.738;2023-07-30T01:11:51;27.50;;;25.70;;
48588;SDS011;34369;51.174;6.738;2023-07-30T01:14:26;28.98;;;26.88;;
48588;SDS011;34369;51.174;6.738;2023-07-30T01:16:59;28.70;;;26.50;;
48588;SDS011;34369;51.174;6.738;2023-07-30T01:19:31;28.90;;;26.90;;
48588;SDS011;34369;51.174;6.738;2023-07-30T01:22:04;29.35;;;27.35;;
48588;SDS011;34369;51.174;6.738;2023-07-30T01:24:36;29.20;;;27.02;;
48588;SDS011;34369;51.174;6.738;2023-07-30T01:27:11;28.90;;;26.48;;
48588;SDS011;34369;51.174;6.738;2023-07-30T01:29:48;29.70;;;27.60;;
48588;SDS011;34369;51.174;6.738;2023-07-30T01:34:57;29.40;;;27.20;;
48588;SDS011;34369;51.174;6.738;2023-07-30T01:37:32;29.02;;;27.02;;
48588;SDS011;34369;51.174;6.738;2023-07-30T01:40:05;29.33;;;27.08;;
48588;SDS011;34369;51.174;6.738;2023-07-30T01:42:39;29.20;;;26.95;;
48588;SDS011;34369;51.174;6.738;2023-07-30T01:45:13;29.13;;;27.02;;
48588;SDS011;34369;51.174;6.738;2023-07-30T01:47:45;28.52;;;26.63;;
48588;SDS011;34369;51.174;6.738;2023-07-30T01:50:17;29.10;;;26.98;;
48588;SDS011;34369;51.174;6.738;2023-07-30T01:52:51;29.58;;;27.27;;
48588;SDS011;34369;51.174;6.738;2023-07-30T01:55:23;29.48;;;27.10;;
48588;SDS011;34369;51.174;6.738;2023-07-30T01:57:56;28.48;;;26.30;;
48588;SDS011;34369;51.174;6.738;2023-07-30T02:00:28;28.77;;;26.80;;
48588;SDS011;34369;51.174;6.738;2023-07-30T02:03:01;29.75;;;27.35;;
48588;SDS011;34369;51.174;6.738;2023-07-30T02:05:33;28.58;;;26.48;;
48588;SDS011;34369;51.174;6.738;2023-07-30T02:08:07;28.58;;;26.58;;
48588;SDS011;34369;51.174;6.738;2023-07-30T02:10:39;29.33;;;27.10;;
48588;SDS011;34369;51.174;6.738;2023-07-30T02:13:11;28.70;;;26.65;;
48588;SDS011;34369;51.174;6.738;2023-07-30T02:15:43;29.30;;;27.35;;
48588;SDS011;34369;51.174;6.738;2023-07-30T02:18:15;28.58;;;26.45;;
48588;SDS011;34369;51.174;6.738;2023-07-30T02:20:47;29.48;;;27.38;;
48588;SDS011;34369;51.174;6.738;2023-07-30T02:23:21;28.60;;;26.50;;
48588;SDS011;34369;51.174;6.738;2023-07-30T02:25:54;29.73;;;27.10;;
48588;SDS011;34369;51.174;6.738;2023-07-30T02:28:26;29.02;;;27.00;;
48588;SDS011;34369;51.174;6.738;2023-07-30T02:30:58;29.55;;;27.50;;
48588;SDS011;34369;51.174;6.738;2023-07-30T02:33:30;29.27;;;27.23;;
48588;SDS011;34369;51.174;6.738;2023-07-30T02:36:03;29.55;;;27.35;;
48588;SDS011;34369;51.174;6.738;2023-07-30T02:38:37;29.13;;;27.05;;
48588;SDS011;34369;51.174;6.738;2023-07-30T02:41:09;29.50;;;27.08;;
48588;SDS011;34369;51.174;6.738;2023-07-30T02:43:41;28.98;;;26.98;;
48588;SDS011;34369;51.174;6.738;2023-07-30T02:46:13;29.55;;;27.33;;
48588;SDS011;34369;51.174;6.738;2023-07-30T02:48:45;29.17;;;27.08;;
48588;SDS011;34369;51.174;6.738;2023-07-30T02:51:17;29.92;;;27.83;;
48588;SDS011;34369;51.174;6.738;2023-07-30T02:53:52;30.17;;;27.77;;
48588;SDS011;34369;51.174;6.738;2023-07-30T02:56:30;28.30;;;26.40;;
48588;SDS011;34369;51.174;6.738;2023-07-30T02:59:02;29.05;;;27.05;;
48588;SDS011;34369;51.174;6.738;2023-07-30T03:01:34;29.50;;;27.40;;
48588;SDS011;34369;51.174;6.738;2023-07-30T03:04:06;28.83;;;26.63;;
48588;SDS011;34369;51.174;6.738;2023-07-30T03:06:39;29.75;;;27.50;;
48588;SDS011;34369;51.174;6.738;2023-07-30T03:09:12;29.75;;;27.65;;
48588;SDS011;34369;51.174;6.738;2023-07-30T03:11:44;30.63;;;28.23;;
48588;SDS011;34369;51.174;6.738;2023-07-30T03:14:17;29.80;;;27.67;;
48588;SDS011;34369;51.174;6.738;2023-07-30T03:16:50;30.13;;;28.02;;
48588;SDS011;34369;51.174;6.738;2023-07-30T03:19:22;29.05;;;27.00;;
48588;SDS011;34369;51.174;6.738;2023-07-30T03:21:54;29.25;;;27.15;;
48588;SDS011;34369;51.174;6.738;2023-07-30T03:24:28;29.58;;;27.58;;
48588;SDS011;34369;51.174;6.738;2023-07-30T03:27:00;30.02;;;27.77;;
48588;SDS011;34369;51.174;6.738;2023-07-30T03:29:32;30.17;;;28.13;;
48588;SDS011;34369;51.174;6.738;2023-07-30T03:32:04;30.50;;;28.42;;
48588;SDS011;34369;51.174;6.738;2023-07-30T03:34:38;30.05;;;28.05;;
48588;SDS011;34369;51.174;6.738;2023-07-30T03:37:10;30.33;;;28.13;;
48588;SDS011;34369;51.174;6.738;2023-07-30T03:39:44;30.45;;;28.13;;
48588;SDS011;34369;51.174;6.738;2023-07-30T03:42:17;30.05;;;27.83;;
48588;SDS011;34369;51.174;6.738;2023-07-30T03:44:49;30.25;;;28.23;;
48588;SDS011;34369;51.174;6.738;2023-07-30T03:47:22;30.05;;;27.95;;
48588;SDS011;34369;51.174;6.738;2023-07-30T03:49:54;30.65;;;28.48;;
48588;SDS011;34369;51.174;6.738;2023-07-30T03:52:26;30.17;;;28.08;;
48588;SDS011;34369;51.174;6.738;2023-07-30T03:54:59;31.02;;;28.83;;
48588;SDS011;34369;51.174;6.738;2023-07-30T03:57:31;29.92;;;27.92;;
48588;SDS011;34369;51.174;6.738;2023-07-30T04:00:05;30.73;;;28.60;;
48588;SDS011;34369;51.174;6.738;2023-07-30T04:02:39;30.30;;;28.10;;
48588;SDS011;34369;51.174;6.738;2023-07-30T04:05:13;30.20;;;28.00;;
48588;SDS011;34369;51.174;6.738;2023-07-30T04:07:45;29.33;;;27.33;;
48588;SDS011;34369;51.174;6.738;2023-07-30T04:10:19;30.35;;;28.20;;
48588;SDS011;34369;51.174;6.738;2023-07-30T04:12:51;30.10;;;27.83;;
48588;SDS011;34369;51.174;6.738;2023-07-30T04:15:23;29.50;;;27.50;;
48588;SDS011;34369;51.174;6.738;2023-07-30T04:17:56;29.27;;;27.27;;
48588;SDS011;34369;51.174;6.738;2023-07-30T04:20:28;29.45;;;27.27;;
48588;SDS011;34369;51.174;6.738;2023-07-30T04:23:00;28.52;;;26.63;;
48588;SDS011;34369;51.174;6.738;2023-07-30T04:25:34;29.95;;;27.83;;
48588;SDS011;34369;51.174;6.738;2023-07-30T04:28:06;30.75;;;28.50;;
48588;SDS011;34369;51.174;6.738;2023-07-30T04:30:39;29.77;;;27.58;;
48588;SDS011;34369;51.174;6.738;2023-07-30T04:33:12;30.33;;;27.88;;
48588;SDS011;34369;51.174;6.738;2023-07-30T04:35:45;29.75;;;27.25;;
48588;SDS011;34369;51.174;6.738;2023-07-30T04:38:18;29.92;;;27.23;;
48588;SDS011;34369;51.174;6.738;2023-07-30T04:40:51;28.98;;;26.90;;
48588;SDS011;34369;51.174;6.738;2023-07-30T04:43:24;29.83;;;27.67;;
48588;SDS011;34369;51.174;6.738;2023-07-30T04:45:56;29.23;;;27.15;;
48588;SDS011;34369;51.174;6.738;2023-07-30T04:48:28;28.67;;;26.65;;
48588;SDS011;34369;51.174;6.738;2023-07-30T04:51:01;29.67;;;27.55;;
48588;SDS011;34369;51.174;6.738;2023-07-30T04:53:34;29.25;;;27.20;;
48588;SDS011;34369;51.174;6.738;2023-07-30T04:56:08;28.90;;;26.90;;
48588;SDS011;34369;51.174;6.738;2023-07-30T04:58:42;29.30;;;27.20;;
48588;SDS011;34369;51.174;6.738;2023-07-30T05:01:14;29.02;;;27.02;;
48588;SDS011;34369;51.174;6.738;2023-07-30T05:03:47;28.98;;;26.60;;
48588;SDS011;34369;51.174;6.738;2023-07-30T05:06:20;29.50;;;27.30;;
48588;SDS011;34369;51.174;6.738;2023-07-30T05:08:53;29.33;;;27.33;;
48588;SDS011;34369;51.174;6.738;2023-07-30T05:11:27;28.75;;;26.83;;
48588;SDS011;34369;51.174;6.738;2023-07-30T05:13:59;28.92;;;26.80;;
48588;SDS011;34369;51.174;6.738;2023-07-30T05:16:31;28.58;;;26.67;;
48588;SDS011;34369;51.174;6.738;2023-07-30T05:19:03;29.83;;;27.25;;
48588;SDS011;34369;51.174;6.738;2023-07-30T05:21:35;29.65;;;27.52;;
48588;SDS011;34369;51.174;6.738;2023-07-30T05:24:08;28.13;;;26.13;;
48588;SDS011;34369;51.174;6.738;2023-07-30T05:26:41;29.13;;;27.05;;
48588;SDS011;34369;51.174;6.738;2023-07-30T05:29:14;29.45;;;27.52;;
48588;SDS011;34369;51.174;6.738;2023-07-30T05:31:46;29.17;;;27.15;;
48588;SDS011;34369;51.174;6.738;2023-07-30T05:34:18;29.02;;;27.02;;
48588;SDS011;34369;51.174;6.738;2023-07-30T05:36:51;29.02;;;27.02;;
48588;SDS011;34369;51.174;6.738;2023-07-30T05:39:23;27.75;;;25.83;;
48588;SDS011;34369;51.174;6.738;2023-07-30T05:41:57;28.08;;;26.08;;
48588;SDS011;34369;51.174;6.738;2023-07-30T05:44:37;28.98;;;26.98;;
48588;SDS011;34369;51.174;6.738;2023-07-30T05:47:10;28.55;;;26.55;;
48588;SDS011;34369;51.174;6.738;2023-07-30T05:49:42;28.27;;;26.27;;
48588;SDS011;34369;51.174;6.738;2023-07-30T05:52:14;28.90;;;26.80;;
48588;SDS011;34369;51.174;6.738;2023-07-30T05:54:46;28.98;;;26.83;;
48588;SDS011;34369;51.174;6.738;2023-07-30T05:57:20;28.63;;;26.63;;
48588;SDS011;34369;51.174;6.738;2023-07-30T05:59:52;27.02;;;25.23;;
48588;SDS011;34369;51.174;6.738;2023-07-30T06:02:24;28.50;;;26.40;;
48588;SDS011;34369;51.174;6.738;2023-07-30T06:04:56;28.65;;;26.75;;
48588;SDS011;34369;51.174;6.738;2023-07-30T06:07:28;28.83;;;26.67;;
48588;SDS011;34369;51.174;6.738;2023-07-30T06:10:00;28.50;;;26.60;;
48588;SDS011;34369;51.174;6.738;2023-07-30T06:12:34;28.67;;;26.67;;
48588;SDS011;34369;51.174;6.738;2023-07-30T06:15:09;28.17;;;26.27;;
48588;SDS011;34369;51.174;6.738;2023-07-30T06:17:41;28.40;;;26.42;;
48588;SDS011;34369;51.174;6.738;2023-07-30T06:20:14;28.88;;;26.77;;
48588;SDS011;34369;51.174;6.738;2023-07-30T06:22:46;27.95;;;25.95;;
48588;SDS011;34369;51.174;6.738;2023-07-30T06:25:18;27.92;;;25.98;;
48588;SDS011;34369;51.174;6.738;2023-07-30T06:27:53;27.98;;;25.98;;
48588;SDS011;34369;51.174;6.738;2023-07-30T06:33:00;28.23;;;26.17;;
48588;SDS011;34369;51.174;6.738;2023-07-30T06:35:33;27.92;;;26.02;;
48588;SDS011;34369;51.174;6.738;2023-07-30T06:38:07;27.88;;;26.00;;
48588;SDS011;34369;51.174;6.738;2023-07-30T06:40:40;28.88;;;26.63;;
48588;SDS011;34369;51.174;6.738;2023-07-30T06:43:14;28.67;;;26.67;;
48588;SDS011;34369;51.174;6.738;2023-07-30T06:45:46;28.27;;;26.27;;
48588;SDS011;34369;51.174;6.738;2023-07-30T06:48:18;28.67;;;26.65;;
48588;SDS011;34369;51.174;6.738;2023-07-30T06:50:51;28.77;;;26.67;;
48588;SDS011;34369;51.174;6.738;2023-07-30T06:53:24;28.48;;;26.35;;
48588;SDS011;34369;51.174;6.738;2023-07-30T06:55:56;28.23;;;26.15;;
48588;SDS011;34369;51.174;6.738;2023-07-30T06:58:30;27.90;;;25.73;;
48588;SDS011;34369;51.174;6.738;2023-07-30T07:01:03;28.33;;;26.33;;
48588;SDS011;34369;51.174;6.738;2023-07-30T07:03:35;28.20;;;25.90;;
48588;SDS011;34369;51.174;6.738;2023-07-30T07:06:07;27.73;;;25.63;;
48588;SDS011;34369;51.174;6.738;2023-07-30T07:08:40;27.30;;;25.17;;
48588;SDS011;34369;51.174;6.738;2023-07-30T07:11:12;27.63;;;25.52;;
48588;SDS011;34369;51.174;6.738;2023-07-30T07:13:46;27.55;;;25.55;;
48588;SDS011;34369;51.174;6.738;2023-07-30T07:16:18;27.25;;;25.15;;
48588;SDS011;34369;51.174;6.738;2023-07-30T07:18:50;28.25;;;26.10;;
48588;SDS011;34369;51.174;6.738;2023-07-30T07:21:23;26.92;;;24.88;;
48588;SDS011;34369;51.174;6.738;2023-07-30T07:23:56;27.98;;;25.90;;
48588;SDS011;34369;51.174;6.738;2023-07-30T07:26:29;27.45;;;25.35;;
48588;SDS011;34369;51.174;6.738;2023-07-30T07:29:01;28.23;;;26.02;;
48588;SDS011;34369;51.174;6.738;2023-07-30T07:31:33;28.17;;;26.13;;
48588;SDS011;34369;51.174;6.738;2023-07-30T07:34:06;27.77;;;25.50;;
48588;SDS011;34369;51.174;6.738;2023-07-30T07:36:39;28.15;;;26.15;;
48588;SDS011;34369;51.174;6.738;2023-07-30T07:42:37;27.52;;;25.30;;
48588;SDS011;34369;51.174;6.738;2023-07-30T07:48:16;27.88;;;25.60;;
48588;SDS011;34369;51.174;6.738;2023-07-30T07:50:49;28.80;;;26.20;;
48588;SDS011;34369;51.174;6.738;2023-07-30T07:53:21;27.10;;;25.10;;
48588;SDS011;34369;51.174;6.738;2023-07-30T07:55:54;28.08;;;25.85;;
48588;SDS011;34369;51.174;6.738;2023-07-30T07:58:27;28.15;;;25.83;;
48588;SDS011;34369;51.174;6.738;2023-07-30T08:01:00;26.92;;;25.02;;
48588;SDS011;34369;51.174;6.738;2023-07-30T08:03:34;28.17;;;25.85;;
48588;SDS011;34369;51.174;6.738;2023-07-30T08:06:06;27.67;;;25.48;;
48588;SDS011;34369;51.174;6.738;2023-07-30T08:08:39;27.90;;;25.70;;
48588;SDS011;34369;51.174;6.738;2023-07-30T08:11:12;27.63;;;25.42;;
48588;SDS011;34369;51.174;6.738;2023-07-30T08:13:45;27.27;;;25.15;;
48588;SDS011;34369;51.174;6.738;2023-07-30T08:16:19;27.45;;;25.38;;
48588;SDS011;34369;51.174;6.738;2023-07-30T08:18:51;27.95;;;25.83;;
48588;SDS011;34369;51.174;6.738;2023-07-30T08:21:25;27.38;;;25.05;;
48588;SDS011;34369;51.174;6.738;2023-07-30T08:23:57;27.42;;;25.13;;
48588;SDS011;34369;51.174;6.738;2023-07-30T08:26:30;27.35;;;24.95;;
48588;SDS011;34369;51.174;6.738;2023-07-30T08:29:03;27.83;;;25.60;;
48588;SDS011;34369;51.174;6.738;2023-07-30T08:31:38;27.75;;;25.40;;
48588;SDS011;34369;51.174;6.738;2023-07-30T08:34:10;26.50;;;24.08;;
48588;SDS011;34369;51.174;6.738;2023-07-30T08:36:42;26.60;;;24.50;;
48588;SDS011;34369;51.174;6.738;2023-07-30T08:39:15;25.42;;;23.48;;
48588;SDS011;34369;51.174;6.738;2023-07-30T08:41:48;27.45;;;25.13;;
48588;SDS011;34369;51.174;6.738;2023-07-30T08:44:20;27.23;;;24.77;;
48588;SDS011;34369;51.174;6.738;2023-07-30T08:46:56;26.75;;;24.50;;
48588;SDS011;34369;51.174;6.738;2023-07-30T08:49:29;26.52;;;24.40;;
48588;SDS011;34369;51.174;6.738;2023-07-30T08:52:03;26.00;;;24.02;;
48588;SDS011;34369;51.174;6.738;2023-07-30T08:54:40;26.20;;;23.98;;
48588;SDS011;34369;51.174;6.738;2023-07-30T08:57:13;26.67;;;24.45;;
48588;SDS011;34369;51.174;6.738;2023-07-30T08:59:50;26.13;;;23.70;;
48588;SDS011;34369;51.174;6.738;2023-07-30T09:02:30;27.85;;;25.23;;
48588;SDS011;34369;51.174;6.738;2023-07-30T09:05:09;25.88;;;23.73;;
48588;SDS011;34369;51.174;6.738;2023-07-30T09:07:42;26.52;;;24.15;;
48588;SDS011;34369;51.174;6.738;2023-07-30T09:10:14;26.75;;;24.58;;
48588;SDS011;34369;51.174;6.738;2023-07-30T09:12:52;26.38;;;24.10;;
48588;SDS011;34369;51.174;6.738;2023-07-30T09:15:29;25.83;;;23.73;;
48588;SDS011;34369;51.174;6.738;2023-07-30T09:18:05;26.42;;;24.15;;
48588;SDS011;34369;51.174;6.738;2023-07-30T09:20:39;25.95;;;23.65;;
48588;SDS011;34369;51.174;6.738;2023-07-30T09:23:13;25.25;;;23.15;;
48588;SDS011;34369;51.174;6.738;2023-07-30T09:25:47;24.05;;;22.13;;
48588;SDS011;34369;51.174;6.738;2023-07-30T09:28:20;24.10;;;22.00;;
48588;SDS011;34369;51.174;6.738;2023-07-30T09:30:59;23.80;;;21.80;;
48588;SDS011;34369;51.174;6.738;2023-07-30T09:33:35;24.60;;;22.10;;
48588;SDS011;34369;51.174;6.738;2023-07-30T09:36:12;23.60;;;21.70;;
48588;SDS011;34369;51.174;6.738;2023-07-30T09:38:45;23.08;;;21.27;;
48588;SDS011;34369;51.174;6.738;2023-07-30T09:41:17;24.35;;;22.17;;
48588;SDS011;34369;51.174;6.738;2023-07-30T09:43:56;24.60;;;22.38;;
48588;SDS011;34369;51.174;6.738;2023-07-30T09:46:31;23.73;;;21.83;;
48588;SDS011;34369;51.174;6.738;2023-07-30T09:49:05;24.35;;;22.45;;
48588;SDS011;34369;51.174;6.738;2023-07-30T09:51:40;24.52;;;22.52;;
48588;SDS011;34369;51.174;6.738;2023-07-30T09:54:13;24.50;;;22.50;;
48588;SDS011;34369;51.174;6.738;2023-07-30T09:56:47;24.02;;;22.02;;
48588;SDS011;34369;51.174;6.738;2023-07-30T09:59:19;23.52;;;21.63;;
48588;SDS011;34369;51.174;6.738;2023-07-30T10:01:51;23.48;;;21.58;;
48588;SDS011;34369;51.174;6.738;2023-07-30T10:04:27;24.13;;;21.85;;
48588;SDS011;34369;51.174;6.738;2023-07-30T10:07:04;23.92;;;21.90;;
48588;SDS011;34369;51.174;6.738;2023-07-30T10:09:46;24.05;;;22.10;;
48588;SDS011;34369;51.174;6.738;2023-07-30T10:12:22;24.63;;;22.45;;
48588;SDS011;34369;51.174;6.738;2023-07-30T10:14:58;24.10;;;22.10;;
48588;SDS011;34369;51.174;6.738;2023-07-30T10:17:33;23.80;;;21.73;;
48588;SDS011;34369;51.174;6.738;2023-07-30T10:20:21;23.70;;;21.77;;
48588;SDS011;34369;51.174;6.738;2023-07-30T10:22:56;23.70;;;21.80;;
48588;SDS011;34369;51.174;6.738;2023-07-30T10:25:30;24.10;;;22.00;;
48588;SDS011;34369;51.174;6.738;2023-07-30T10:28:27;23.08;;;21.38;;
48588;SDS011;34369;51.174;6.738;2023-07-30T10:31:07;23.77;;;21.73;;
48588;SDS011;34369;51.174;6.738;2023-07-30T10:33:43;24.60;;;22.60;;
48588;SDS011;34369;51.174;6.738;2023-07-30T10:36:30;23.48;;;21.70;;
48588;SDS011;34369;51.174;6.738;2023-07-30T10:39:12;23.50;;;21.65;;
48588;SDS011;34369;51.174;6.738;2023-07-30T10:41:50;24.05;;;22.10;;
48588;SDS011;34369;51.174;6.738;2023-07-30T10:44:26;23.83;;;22.02;;
48588;SDS011;34369;51.174;6.738;2023-07-30T10:47:00;23.75;;;21.65;;
48588;SDS011;34369;51.174;6.738;2023-07-30T10:49:35;23.35;;;21.35;;
48588;SDS011;34369;51.174;6.738;2023-07-30T10:52:11;22.65;;;20.95;;
48588;SDS011;34369;51.174;6.738;2023-07-30T10:54:44;23.08;;;21.05;;
48588;SDS011;34369;51.174;6.738;2023-07-30T10:57:16;22.73;;;20.98;;
48588;SDS011;34369;51.174;6.738;2023-07-30T10:59:50;23.25;;;21.40;;
48588;SDS011;34369;51.174;6.738;2023-07-30T11:02:26;23.25;;;21.35;;
48588;SDS011;34369;51.174;6.738;2023-07-30T11:05:10;22.63;;;20.93;;
48588;SDS011;34369;51.174;6.738;2023-07-30T11:07:50;23.83;;;21.83;;
48588;SDS011;34369;51.174;6.738;2023-07-30T11:10:23;23.20;;;21.40;;
48588;SDS011;34369;51.174;6.738;2023-07-30T11:12:55;23.20;;;21.33;;
48588;SDS011;34369;51.174;6.738;2023-07-30T11:15:29;22.42;;;20.70;;
48588;SDS011;34369;51.174;6.738;2023-07-30T11:18:01;22.35;;;20.48;;
48588;SDS011;34369;51.174;6.738;2023-07-30T11:20:35;22.50;;;20.50;;
48588;SDS011;34369;51.174;6.738;2023-07-30T11:26:01;22.02;;;20.33;;
48588;SDS011;34369;51.174;6.738;2023-07-30T11:28:35;22.80;;;21.10;;
48588;SDS011;34369;51.174;6.738;2023-07-30T11:31:11;22.77;;;20.88;;
48588;SDS011;34369;51.174;6.738;2023-07-30T11:33:45;22.58;;;20.70;;
48588;SDS011;34369;51.174;6.738;2023-07-30T11:36:20;22.50;;;20.60;;
48588;SDS011;34369;51.174;6.738;2023-07-30T11:38:55;22.05;;;20.40;;
48588;SDS011;34369;51.174;6.738;2023-07-30T11:41:27;22.70;;;20.90;;
48588;SDS011;34369;51.174;6.738;2023-07-30T11:44:00;22.40;;;20.70;;
48588;SDS011;34369;51.174;6.738;2023-07-30T11:46:34;22.73;;;20.95;;
48588;SDS011;34369;51.174;6.738;2023-07-30T11:49:10;22.48;;;20.67;;
48588;SDS011;34369;51.174;6.738;2023-07-30T11:51:44;22.02;;;20.23;;
48588;SDS011;34369;51.174;6.738;2023-07-30T11:54:21;21.75;;;20.05;;
48588;SDS011;34369;51.174;6.738;2023-07-30T11:56:54;22.20;;;20.40;;
48588;SDS011;34369;51.174;6.738;2023-07-30T11:59:26;22.70;;;20.90;;
48588;SDS011;34369;51.174;6.738;2023-07-30T12:01:59;23.23;;;21.30;;
48588;SDS011;34369;51.174;6.738;2023-07-30T12:04:42;22.90;;;21.10;;
48588;SDS011;34369;51.174;6.738;2023-07-30T12:07:24;23.17;;;21.38;;
48588;SDS011;34369;51.174;6.738;2023-07-30T12:10:08;22.67;;;21.08;;
48588;SDS011;34369;51.174;6.738;2023-07-30T12:12:43;23.35;;;21.40;;
48588;SDS011;34369;51.174;6.738;2023-07-30T12:15:16;22.90;;;21.20;;
48588;SDS011;34369;51.174;6.738;2023-07-30T12:17:49;23.02;;;21.30;;
48588;SDS011;34369;51.174;6.738;2023-07-30T12:20:21;23.38;;;21.58;;
48588;SDS011;34369;51.174;6.738;2023-07-30T12:23:01;23.25;;;21.55;;
48588;SDS011;34369;51.174;6.738;2023-07-30T12:25:35;23.40;;;21.70;;
48588;SDS011;34369;51.174;6.738;2023-07-30T12:28:07;23.52;;;21.73;;
48588;SDS011;34369;51.174;6.738;2023-07-30T12:30:41;22.95;;;21.35;;
48588;SDS011;34369;51.174;6.738;2023-07-30T12:33:14;22.98;;;21.27;;
48588;SDS011;34369;51.174;6.738;2023-07-30T12:35:46;23.27;;;21.58;;
48588;SDS011;34369;51.174;6.738;2023-07-30T12:38:20;23.55;;;21.55;;
48588;SDS011;34369;51.174;6.738;2023-07-30T12:40:54;24.00;;;22.30;;
48588;SDS011;34369;51.174;6.738;2023-07-30T12:43:27;23.70;;;21.90;;
48588;SDS011;34369;51.174;6.738;2023-07-30T12:45:59;23.50;;;21.80;;
48588;SDS011;34369;51.174;6.738;2023-07-30T12:48:32;23.33;;;21.60;;
48588;SDS011;34369;51.174;6.738;2023-07-30T12:51:05;24.02;;;22.15;;
48588;SDS011;34369;51.174;6.738;2023-07-30T12:53:40;23.52;;;21.65;;
48588;SDS011;34369;51.174;6.738;2023-07-30T12:56:15;24.25;;;22.30;;
48588;SDS011;34369;51.174;6.738;2023-07-30T12:58:50;24.50;;;22.50;;
48588;SDS011;34369;51.174;6.738;2023-07-30T13:01:22;24.33;;;22.42;;
48588;SDS011;34369;51.174;6.738;2023-07-30T13:03:56;24.27;;;22.40;;
48588;SDS011;34369;51.174;6.738;2023-07-30T13:06:29;23.65;;;21.85;;
48588;SDS011;34369;51.174;6.738;2023-07-30T13:09:04;23.75;;;21.92;;
48588;SDS011;34369;51.174;6.738;2023-07-30T13:11:38;23.88;;;22.08;;
48588;SDS011;34369;51.174;6.738;2023-07-30T13:14:11;24.00;;;22.20;;
48588;SDS011;34369;51.174;6.738;2023-07-30T13:16:44;24.13;;;22.08;;
48588;SDS011;34369;51.174;6.738;2023-07-30T13:19:16;23.77;;;21.77;;
48588;SDS011;34369;51.174;6.738;2023-07-30T13:21:49;23.05;;;21.30;;
48588;SDS011;34369;51.174;6.738;2023-07-30T13:24:22;23.92;;;21.88;;
48588;SDS011;34369;51.174;6.738;2023-07-30T13:27:01;23.25;;;21.45;;
48588;SDS011;34369;51.174;6.738;2023-07-30T13:30:51;22.55;;;20.85;;
48588;SDS011;34369;51.174;6.738;2023-07-30T13:35:58;22.40;;;20.73;;
48588;SDS011;34369;51.174;6.738;2023-07-30T13:38:32;22.73;;;20.92;;
48588;SDS011;34369;51.174;6.738;2023-07-30T13:41:04;23.38;;;21.50;;
48588;SDS011;34369;51.174;6.738;2023-07-30T13:43:36;22.33;;;20.58;;
48588;SDS011;34369;51.174;6.738;2023-07-30T13:46:11;22.90;;;21.10;;
48588;SDS011;34369;51.174;6.738;2023-07-30T13:48:43;23.17;;;21.30;;
48588;SDS011;34369;51.174;6.738;2023-07-30T13:51:15;22.00;;;20.23;;
48588;SDS011;34369;51.174;6.738;2023-07-30T13:53:48;22.58;;;20.88;;
48588;SDS011;34369;51.174;6.738;2023-07-30T13:56:20;22.48;;;20.65;;
48588;SDS011;34369;51.174;6.738;2023-07-30T13:58:54;22.80;;;21.10;;
48588;SDS011;34369;51.174;6.738;2023-07-30T14:01:29;22.90;;;21.00;;
48588;SDS011;34369;51.174;6.738;2023-07-30T14:04:02;22.63;;;20.95;;
48588;SDS011;34369;51.174;6.738;2023-07-30T14:06:34;22.60;;;20.90;;
48588;SDS011;34369;51.174;6.738;2023-07-30T14:09:07;22.90;;;21.20;;
48588;SDS011;34369;51.174;6.738;2023-07-30T14:11:39;22.92;;;21.02;;
48588;SDS011;34369;51.174;6.738;2023-07-30T14:14:15;22.88;;;21.17;;
48588;SDS011;34369;51.174;6.738;2023-07-30T14:16:53;23.23;;;21.52;;
48588;SDS011;34369;51.174;6.738;2023-07-30T14:19:25;22.30;;;20.33;;
48588;SDS011;34369;51.174;6.738;2023-07-30T14:22:00;22.92;;;21.23;;
48588;SDS011;34369;51.174;6.738;2023-07-30T14:24:32;23.00;;;21.30;;
48588;SDS011;34369;51.174;6.738;2023-07-30T14:27:06;22.95;;;21.17;;
48588;SDS011;34369;51.174;6.738;2023-07-30T14:29:39;22.23;;;20.52;;
48588;SDS011;34369;51.174;6.738;2023-07-30T14:32:12;22.80;;;20.80;;
48588;SDS011;34369;51.174;6.738;2023-07-30T14:34:44;23.10;;;21.20;;
48588;SDS011;34369;51.174;6.738;2023-07-30T14:37:17;22.25;;;20.65;;
48588;SDS011;34369;51.174;6.738;2023-07-30T14:39:50;22.13;;;20.38;;
48588;SDS011;34369;51.174;6.738;2023-07-30T14:42:22;22.15;;;20.55;;
48588;SDS011;34369;51.174;6.738;2023-07-30T14:44:54;22.90;;;21.10;;
48588;SDS011;34369;51.174;6.738;2023-07-30T14:47:29;22.48;;;20.70;;
48588;SDS011;34369;51.174;6.738;2023-07-30T14:50:02;22.05;;;20.33;;
48588;SDS011;34369;51.174;6.738;2023-07-30T14:52:36;22.75;;;21.05;;
48588;SDS011;34369;51.174;6.738;2023-07-30T14:55:09;22.52;;;20.83;;
48588;SDS011;34369;51.174;6.738;2023-07-30T14:57:42;22.13;;;20.42;;
48588;SDS011;34369;51.174;6.738;2023-07-30T15:00:14;22.55;;;20.85;;
48588;SDS011;34369;51.174;6.738;2023-07-30T15:02:49;22.52;;;20.88;;
48588;SDS011;34369;51.174;6.738;2023-07-30T15:05:23;22.40;;;20.40;;
48588;SDS011;34369;51.174;6.738;2023-07-30T15:07:56;22.90;;;21.10;;
48588;SDS011;34369;51.174;6.738;2023-07-30T15:10:28;22.60;;;20.77;;
48588;SDS011;34369;51.174;6.738;2023-07-30T15:13:01;23.38;;;21.58;;
48588;SDS011;34369;51.174;6.738;2023-07-30T15:15:34;22.55;;;20.70;;
48588;SDS011;34369;51.174;6.738;2023-07-30T15:18:08;23.17;;;21.45;;